NWS Home NWS Lubbock West Texas Mesonet Three hour changes as of 0957 PM, Sun Sep 15, 2019

Latest   N   C   S   Daily Sum   3hrΔ   24hrΔ   Soil Data 
Site Map   24hr Precip   72hr Precip   Google Plot


Station Time of Last Temp Now Temp 3h ago Delta-T Dewpoint Now Dewpoint 3hr ago Delta-Td 3hr Press Change (mB)
Reese Center  09:50 PM 76.6 84.5 -8 54.2 49.3 5 1
Abernathy  09:50 PM 71.3 83 -11.6 52.9 50.2 2.7 0.9
Plainview  09:50 PM 71.7 85.1 -13.3 56.2 50.8 5.4 1
Tahoka  09:50 PM 78.4 86 -7.7 52.5 51.5 1 1.1
Slaton  09:50 PM 73.5 86.5 -13.1 55.7 51.6 4.1 1
Levelland  09:50 PM 70.3 84.3 -14 53.1 46.1 7 1
Roaring Springs  09:50 PM 77.6 87.2 -9.5 58.1 54 4.1 1.1
Floydada  09:50 PM 71.2 84.7 -13.5 55.4 51 4.4 1
Ralls  09:50 PM 73.3 86.5 -13.2 52.9 47.3 5.5 1.1
Brownfield  09:50 PM 72.9 85.2 -12.2 53.9 49.1 4.8 0.8
Muleshoe  09:50 PM 69.2 81.7 -12.5 51.5 46.6 4.8 0.8
Morton  09:50 PM 72.6 82.3 -9.7 50.9 48.4 2.5 0.8
O'Donnell  09:50 PM 76.1 85.7 -9.6 52.4 50.2 2.3 1
Seagraves  09:50 PM 73.7 84.6 -10.9 53.1 50.6 2.5 0.9
Amherst  09:50 PM 69.8 82.1 -12.3 54.9 52.8 2.1 1
Plains  09:50 PM 71.1 83.3 -12.2 51.4 47.5 3.9 0.9
Lamesa  09:50 PM 76 86 -10 52.1 49.4 2.7 1.1
Hart  09:50 PM 69.4 82.4 -13 56.3 50.9 5.4 0.9
Friona  09:50 PM 67.7 82 -14.3 51.5 47.6 3.9 1
Dimmitt  09:50 PM 70.9 79.6 -8.6 56.3 52.8 3.5 0.8
Tulia  09:50 PM 70.2 83.1 -12.9 57 52.6 4.4 0.7
Silverton  09:50 PM 70.7 85.1 -14.4 54 50.7 3.3 0.9
Post  09:50 PM 78.7 88.3 -9.7 49.4 47.8 1.5 1.1
Seminole  09:50 PM 72.5 85.9 -13.5 51.3 46 5.3 1
Gail  09:50 PM 75.8 88.8 -13 51.1 49.7 1.5 1.3
White River Lake  09:45 PM 78.4 88.6 -10.2 53 51.7 1.3 1
Graham  09:50 PM 79.5 87 -7.5 49.8 48.7 1.1 1.3
Sundown  09:50 PM 68.6 82.2 -13.6 51 47.7 3.2 0.7
Anton  09:50 PM 73.2 83.9 -10.7 53 50.4 2.6 1
Fluvanna  09:50 PM 76.2 88.1 -11.8 52.3 51 1.3 1.1
Spur  09:50 PM 79.2 91 -11.8 53.7 51.5 2.1 1.2
Northwest Lubbock  09:50 PM 78.3 86 -7.7 50.8 48 2.8 0.9
Guthrie  09:50 PM 80.3 92.5 -12.2 52.5 52.5 0 1.2
Clarendon  09:50 PM 80.6 86.9 -6.3 50.7 48.6 2.1 1
Paducah  09:50 PM 77.6 89.6 -12 57.1 53.7 3.4 1.2
Snyder  09:50 PM 77 89.2 -12.2 56.2 51.7 4.6 1.1
Memphis  09:50 PM 78.5 90.2 -11.7 54.6 50.4 4.2 1
Jayton  09:50 PM 80.1 92 -11.9 52.6 52.6 0 1.2
Pampa  09:50 PM 73.8 84.3 -10.5 52.3 49.5 2.9 0.8
Aspermont  09:50 PM 78.8 91.7 -12.9 54.7 54.6 0.1 1.2
Hereford  09:50 PM 72.4 82 -9.6 52.5 48.5 4 0.9
Goodlett  09:50 PM 78.7 92.5 -13.8 60.7 55.9 4.8 1.1
McLean  09:50 PM 76 86.6 -10.7 53 51.7 1.3 0.9
Denver City  09:50 PM 68.8 81.9 -13.2 51.2 43.6 7.6 0.9
Lake Alan Henry  09:50 PM 79.7 90.9 -11.2 57.6 52.2 5.4 1.2
Wolfforth  09:50 PM 72 84.7 -12.7 54.7 50.7 4 1
Andrews  09:50 PM 76.7 87.2 -10.5 50.6 43.8 6.8 1.2
Turkey  09:50 PM 75.6 87.5 -11.9 59.3 54.6 4.7 0.9
Childress  09:50 PM 77.8 90.6 -12.8 58.5 51.1 7.3 1
Tatum  09:50 PM 67.9 79.8 -11.9 52.1 47.4 4.6 0.8
Northfield  09:50 PM 80.1 90.9 -10.8 55 50.9 4 1.1
Dora  09:50 PM 70.7 82.1 -11.4 49.7 47.1 2.6 1
Northwest San Angelo  09:50 PM 77.3 91 -13.6 53.6 49.5 4.1 1.2
Saint Lawrence  09:50 PM 75.2 88.2 -13 53.5 49.9 3.7 1.6
Haskell  09:50 PM 81.7 91.8 -10.1 58.3 55.1 3.2 1
Wall  09:50 PM 78.5 91.5 -13.1 57.6 56.9 0.7 1.2
Seymour  09:50 PM 78.4 91.9 -13.6 61.5 60 1.5 0.8
Knox City  09:50 PM 82.7 95 -12.3 57.5 54.2 3.3 1
Guadalupe Mtns Park  09:50 PM 71.7 76 -4.2 46.8 45.6 1.2 1.1
Caprock Canyons   09:50 PM 73.1 84.5 -11.3 57.7 52.7 5 1
Odell  09:50 PM 82 92.2 -10.2 63.8 58.6 5.2 1
Coyanosa  09:50 PM 76.7 90.6 -13.8 51.3 48 3.3 1.3
Big Lake  09:50 PM 79.5 88.2 -8.7 53.5 52.1 1.4 1.7
Junction  09:50 PM 82.4 90.8 -8.4 56.9 56.8 0.2 1.3
Hobbs  09:50 PM 76.4 82.8 -6.4 46.5 42.6 3.8 1
Canadian  09:50 PM 75.8 88.4 -12.7 56 56 -0 1
Palo Duro Canyon State Park Rim  09:50 PM 75.9 83.7 -7.8 51.5 49.5 2 0.7
Bootleg  09:50 PM 71.4 80.4 -9 47.4 47.6 -0.2 0.9
Sterling City  09:50 PM 73.6 89.9 -16.2 51.9 51 0.9 1.4
Mertzon  09:50 PM 77 90.2 -13.2 54.2 52.7 1.4 1.5
Persimmon Gap  09:50 PM 81.7 88.3 -6.7 51.5 52.9 -1.5 1.7
Weinert  09:50 PM 80.2 92.3 -12.1 59.3 59.2 0.1 1
Claude 12 Southwest  09:50 PM 74.5 84 -9.5 51.9 50.1 1.9 0.8
Amarillo 7 South Southeast  09:50 PM 71.4 83.2 -11.7 51.1 49.3 1.8 0.7
Umbarger  09:50 PM 68.5 83.7 -15.2 49.5 48.8 0.7 0.8
Lomax  09:50 PM 73.6 87.9 -14.3 60.8 54.6 6.2 1.5
Amarillo 9 North Northeast  09:50 PM 71.8 84.5 -12.7 51.8 51.7 0.1 0.9
Aiken  09:50 PM 68.5 84.3 -15.7 58.6 52.4 6.2 0.9
Sweetwater  09:50 PM 76.4 87.8 -11.3 58 52.6 5.4 1.1
Dozier  09:50 PM 77.9 90 -12.1 57.3 54.3 3 0.9
Amarillo 15 North Northwest  09:50 PM 74.5 85.2 -10.7 52.2 50.8 1.4 0.9
Menard  09:50 PM 76.6 89.5 -12.9 58 57.1 0.8 1.2
Tarzan  09:50 PM 79.1 88.3 -9.2 53.1 52.7 0.4 1.3
Goodnight  09:50 PM 73.9 85.4 -11.6 53.9 52.3 1.6 0.9
Boys Ranch   09:50 PM 74.2 85.8 -11.6 50.5 50.5 0.1 1
Fort McKavett  09:50 PM 77.4 89.3 -11.9 56.4 57.2 -0.8 1.2
Fort Chadbourne  09:50 PM 78.7 89 -10.3 56.7 54.8 1.9 1.2
Palo Duro Canyon State Park Floor  09:50 PM 79.2 87.4 -8.2 53.8 51.1 2.7 0.8
Fort Lancaster  09:50 PM 82 92.2 -10.2 53.8 51.9 1.9 1.9
Dell City 1N  09:50 PM 75.5 78.8 -3.3 60.9 60.1 0.8 0.7
Clyde  09:50 PM 80.3 89.6 -9.2 59.2 55.8 3.3 0.8
Snyder SSW  09:50 PM 76.8 89.5 -12.7 58.2 54.8 3.4 1.3
Panhandle  09:50 PM 67.4 82.4 -15 53.3 52.5 0.8 0.8
Vigo Park  09:50 PM 71.3 83.4 -12.1 58.5 53.9 4.6 0.8
Welch  09:50 PM 70.7 85.7 -15 55.3 50.4 4.8 1.1
Throckmorton  09:50 PM 79.1 92.3 -13.2 63.5 58.5 5 1
Sierra Blanca  09:50 PM 77.1 81.8 -4.8 55.1 48.6 6.5 0.8
Fort Lewis CO  09:50 PM 53 54.8 -1.8 49.5 51.9 -2.4 -0.1
New Home  09:50 PM 72.2 83.3 -11.1 57.1 54 3.2 1
McCamey  09:50 PM 80.8 90.3 -9.5 53.9 53.2 0.7 1.4
Stamford  09:50 PM 80.9 94 -13.1 55.4 55.4 0.1 1
Crowell  09:50 PM 80.6 92.8 -12.2 62.7 57.3 5.4 1.1
Stinnett  09:50 PM 77.3 86.1 -8.7 51.5 50 1.5 1.1
Colorado City  09:40 PM 75.8 89.1 -13.3 59.2 55.6 3.7 1.1
Happy  09:50 PM 67 83 -16.1 57.6 52.6 5 0.7
Endee  09:50 PM 72.7 83.5 -10.8 49.5 48.5 1 1.1
JA Ranch  09:50 PM 70.5 83.6 -13.1 59.5 56.1 3.3 1
Adrian  09:50 PM 72.3 80.8 -8.5 50.2 48.7 1.5 0.8
Lesley  09:50 PM 78.1 90.2 -12.1 56.3 54.4 1.9 1
Earth  09:50 PM 68.4 82.3 -13.9 54.1 52.4 1.7 1
Van Horn  09:50 PM 78.8 85.1 -6.3 52.6 49.7 2.9 1
Rotan  09:50 PM 77.2 90.1 -12.9 56.7 56.7 -0.1 1.2
Fritch  09:50 PM 77.4 85.9 -8.5 50.9 51.9 -1 0.9
Estelline  09:50 PM 80 90.9 -10.9 60 55.3 4.7 1
Crane  09:50 PM 79.8 90.7 -10.8 51.7 51.5 0.3 1.5
Hackberry  09:50 PM 81.8 91.8 -10 60 57.5 2.5 1.1
Romero 11 SSW  09:50 PM 75.4 82.9 -7.5 50.1 50.6 -0.4 0.9
Palo Duro Reservoir 1NW  09:50 PM 74.7 89.2 -14.5 52.6 52.6 0 1.3
South Plains 3ENE  09:50 PM 70.3 86.6 -16.3 56.8 53.6 3.2 0.9
Lake McClellan 2NW  09:50 PM 75.6 83.9 -8.3 52.1 52.6 -0.5 0.9
Segovia 7SSW  09:50 PM 78.9 88.1 -9.2 56.9 54.7 2.3 1.2
Castolon 1NW BBNP  09:50 PM 88.8 94.4 -5.6 53.1 48.3 4.7 1.7
Smyer  09:50 PM 77.2 86.2 -9 53.4 49.7 3.7 1.1
Doole 3WNW  09:50 PM 78.3 91.7 -13.4 57 56.4 0.7 1.2
Stratford  09:50 PM 71.6 82.7 -11.1 52.1 52.1 0.1 1
Olton  09:50 PM 70.2 83.1 -12.9 52.9 49.3 3.6 0.9

West Texas Mesonet Home   Site Map/Menu  NWS Lubbock Soil Data  Daily Summary Page  24hr Precip  72hr Precip  Google Plot